createdAt,value
2018-10-05T00:01:07.408Z,102201.38
2018-10-05T00:03:35.787Z,102194.43
2018-10-05T00:06:04.199Z,102189.66
2018-10-05T00:08:32.579Z,102193.17
2018-10-05T00:11:00.984Z,102189.28
2018-10-05T00:13:29.371Z,102191.02
2018-10-05T00:15:57.775Z,102191.49
2018-10-05T00:18:26.153Z,102187.97
2018-10-05T00:20:54.542Z,102188.45
2018-10-05T00:23:22.924Z,102193.67
2018-10-05T00:25:51.318Z,102188.45
2018-10-05T00:28:19.723Z,102186.72
2018-10-05T00:30:48.127Z,102193.69
2018-10-05T00:33:16.519Z,102193.29
2018-10-05T00:35:44.924Z,102185.46
2018-10-05T00:38:13.311Z,102188.47
2018-10-05T00:40:41.719Z,102185.91
2018-10-05T00:43:10.106Z,102184.60
2018-10-05T00:45:38.525Z,102185.46
2018-10-05T00:48:06.906Z,102186.35
2018-10-05T00:50:35.319Z,102186.78
2018-10-05T00:53:03.774Z,102188.58
2018-10-05T00:55:32.131Z,102179.88
2018-10-05T00:58:00.511Z,102180.75
2018-10-05T01:00:28.894Z,102173.73
2018-10-05T01:02:57.295Z,102177.70
2018-10-05T01:05:25.671Z,102169.44
2018-10-05T01:07:54.064Z,102165.95
2018-10-05T01:10:22.442Z,102162.05
2018-10-05T01:12:50.846Z,102162.05
2018-10-05T01:15:19.223Z,102164.66
2018-10-05T01:17:47.617Z,102159.81
2018-10-05T01:20:15.990Z,102158.94
2018-10-05T01:22:44.406Z,102158.94
2018-10-05T01:25:13.010Z,102154.17
2018-10-05T01:27:41.414Z,102145.47
2018-10-05T01:30:12.538Z,102153.34
2018-10-05T01:32:42.582Z,102149.42
2018-10-05T01:35:10.954Z,102159.44
2018-10-05T01:37:39.954Z,102148.13
2018-10-05T01:40:08.339Z,102146.82
2018-10-05T01:42:36.737Z,102142.47
2018-10-05T01:45:05.306Z,102152.91
2018-10-05T01:47:33.707Z,102166.41
2018-10-05T01:50:02.073Z,102156.02
2018-10-05T01:52:30.478Z,102156.89
2018-10-05T01:54:58.861Z,102162.16
2018-10-05T01:57:27.267Z,102159.56
2018-10-05T01:59:55.649Z,102163.09
2018-10-05T02:02:24.102Z,102160.55
2018-10-05T02:04:52.446Z,102152.72
2018-10-05T02:07:20.846Z,102149.67
2018-10-05T02:09:49.218Z,102156.25
2018-10-05T02:12:17.629Z,102140.53
2018-10-05T02:14:46.019Z,102140.42
2018-10-05T02:17:14.413Z,102153.47
2018-10-05T02:19:42.781Z,102150.41
2018-10-05T02:22:11.210Z,102154.28
2018-10-05T02:24:39.595Z,102149.45
2018-10-05T02:27:07.991Z,102156.84
2018-10-05T02:29:36.385Z,102157.70
2018-10-05T02:32:04.787Z,102153.83
2018-10-05T02:34:33.159Z,102147.31
2018-10-05T02:37:01.550Z,102145.58
2018-10-05T02:39:29.926Z,102141.19
2018-10-05T02:41:58.330Z,102140.73
2018-10-05T02:44:26.706Z,102136.38
2018-10-05T02:46:55.103Z,102143.34
2018-10-05T02:49:23.479Z,102135.47
2018-10-05T02:51:51.854Z,102129.00
2018-10-05T02:54:20.254Z,102130.35
2018-10-05T02:56:48.629Z,102122.97
2018-10-05T02:59:17.018Z,102122.58
2018-10-05T03:01:56.585Z,102124.81
2018-10-05T03:04:24.991Z,102124.39
2018-10-05T03:06:53.378Z,102121.83
2018-10-05T03:09:21.785Z,102113.57
2018-10-05T03:11:50.158Z,102117.15
2018-10-05T03:14:18.555Z,102118.45
2018-10-05T03:16:46.925Z,102119.33
2018-10-05T03:19:15.313Z,102123.24
2018-10-05T03:21:43.694Z,102121.50
2018-10-05T03:24:12.085Z,102114.11
2018-10-05T03:26:40.462Z,102111.02
2018-10-05T03:29:08.881Z,102112.76
2018-10-05T03:31:37.253Z,102117.98
2018-10-05T03:34:05.674Z,102117.96
2018-10-05T03:36:34.050Z,102115.30
2018-10-05T03:39:02.454Z,102114.00
2018-10-05T03:41:30.821Z,102112.25
2018-10-05T03:43:59.209Z,102115.25
2018-10-05T03:46:27.595Z,102124.39
2018-10-05T03:48:55.989Z,102119.16
2018-10-05T03:51:24.361Z,102120.47
2018-10-05T03:53:52.771Z,102119.16
2018-10-05T03:56:21.141Z,102110.03
2018-10-05T03:58:49.634Z,102110.45
2018-10-05T04:01:18.013Z,102109.16
2018-10-05T04:03:46.401Z,102110.52
2018-10-05T04:06:14.778Z,102109.22
2018-10-05T04:08:43.186Z,102110.13
2018-10-05T04:11:11.566Z,102105.36
2018-10-05T04:13:39.985Z,102108.41
2018-10-05T04:16:08.533Z,102110.19
2018-10-05T04:18:36.923Z,102110.19
2018-10-05T04:21:05.294Z,102111.06
2018-10-05T04:23:33.697Z,102115.86
2018-10-05T04:26:02.154Z,102119.77
2018-10-05T04:28:30.573Z,102111.92
2018-10-05T04:31:00.308Z,102115.41
2018-10-05T04:33:28.829Z,102118.90
2018-10-05T04:35:57.334Z,102115.41
2018-10-05T04:38:25.722Z,102111.06
2018-10-05T04:40:54.102Z,102110.68
2018-10-05T04:43:22.465Z,102110.73
2018-10-05T04:45:50.997Z,102114.21
2018-10-05T04:48:19.361Z,102118.56
2018-10-05T04:50:48.002Z,102122.47
2018-10-05T04:53:16.373Z,102121.19
2018-10-05T04:55:44.764Z,102125.97
2018-10-05T04:58:13.139Z,102121.66
2018-10-05T05:00:41.713Z,102122.53
2018-10-05T05:03:10.190Z,102125.59
2018-10-05T05:05:38.918Z,102133.46
2018-10-05T05:08:07.281Z,102128.24
2018-10-05T05:10:35.711Z,102126.51
2018-10-05T05:13:04.085Z,102132.16
2018-10-05T05:15:32.474Z,102135.64
2018-10-05T05:18:00.858Z,102136.95
2018-10-05T05:20:29.257Z,102132.61
2018-10-05T05:22:57.806Z,102139.17
2018-10-05T05:25:26.206Z,102122.64
2018-10-05T05:27:55.089Z,102124.34
2018-10-05T05:30:24.133Z,102122.16
2018-10-05T05:32:52.670Z,102123.03
2018-10-05T05:35:21.074Z,102128.26
2018-10-05T05:37:49.629Z,102129.56
2018-10-05T05:40:18.109Z,102131.30
2018-10-05T05:42:46.458Z,102135.64
2018-10-05T05:45:14.849Z,102132.61
2018-10-05T05:47:43.224Z,102136.08
2018-10-05T05:50:11.619Z,102139.56
2018-10-05T05:52:39.998Z,102140.00
2018-10-05T05:55:08.390Z,102133.97
2018-10-05T05:57:36.753Z,102137.55
2018-10-05T06:00:05.222Z,102130.20
2018-10-05T06:02:33.594Z,102135.92
2018-10-05T06:05:01.985Z,102142.94
2018-10-05T06:07:30.358Z,102144.77
2018-10-05T06:09:58.754Z,102144.83
2018-10-05T06:12:27.122Z,102148.39
2018-10-05T06:14:55.524Z,102155.36
2018-10-05T06:17:23.886Z,102158.89
2018-10-05T06:19:52.391Z,102155.89
2018-10-05T06:22:20.864Z,102160.70
2018-10-05T06:24:49.174Z,102159.44
2018-10-05T06:27:17.581Z,102160.80
2018-10-05T06:29:45.979Z,102161.28
2018-10-05T06:32:14.350Z,102164.33
2018-10-05T06:34:42.743Z,102167.81
2018-10-05T06:37:11.132Z,102170.86
2018-10-05T06:39:39.501Z,102166.94
2018-10-05T06:42:07.976Z,102174.41
2018-10-05T06:44:36.298Z,102172.71
2018-10-05T06:47:04.692Z,102170.19
2018-10-05T06:49:33.058Z,102177.26
2018-10-05T06:52:01.450Z,102174.32
2018-10-05T06:54:29.813Z,102179.74
2018-10-05T06:56:58.205Z,102174.66
2018-10-05T06:59:26.601Z,102180.03
2018-10-05T07:01:55.018Z,102178.44
2018-10-05T07:04:23.390Z,102171.20
2018-10-05T07:06:51.785Z,102175.70
2018-10-05T07:09:20.163Z,102177.97
2018-10-05T07:11:48.551Z,102169.81
2018-10-05T07:14:16.935Z,102175.57
2018-10-05T07:16:45.325Z,102174.83
2018-10-05T07:19:13.694Z,102177.61
2018-10-05T07:21:42.096Z,102173.76
2018-10-05T07:24:10.462Z,102179.52
2018-10-05T07:26:38.849Z,102177.85
2018-10-05T07:29:07.249Z,102174.88
2018-10-05T07:31:35.700Z,102171.03
2018-10-05T07:34:04.057Z,102169.36
2018-10-05T07:36:32.664Z,102165.51
2018-10-05T07:39:01.030Z,102157.26
2018-10-05T07:41:29.661Z,102159.88
2018-10-05T07:43:58.030Z,102155.11
2018-10-05T07:46:26.417Z,102159.48
2018-10-05T07:48:54.794Z,102165.15
2018-10-05T07:51:23.185Z,102169.95
2018-10-05T07:53:51.558Z,102169.52
2018-10-05T07:56:20.137Z,102171.22
2018-10-05T07:58:48.706Z,102176.02
2018-10-05T08:01:17.094Z,102169.44
2018-10-05T08:03:45.666Z,102166.78
2018-10-05T08:06:14.067Z,102170.70
2018-10-05T08:08:42.519Z,102170.75
2018-10-05T08:11:10.910Z,102166.86
2018-10-05T08:13:39.277Z,102162.56
2018-10-05T08:16:07.901Z,102163.58
2018-10-05T08:18:36.270Z,102155.83
2018-10-05T08:21:04.698Z,102154.19
2018-10-05T08:23:33.102Z,102157.84
2018-10-05T08:26:01.498Z,102147.90
2018-10-05T08:28:29.889Z,102144.97
2018-10-05T08:30:58.290Z,102145.12
2018-10-05T08:33:26.664Z,102144.83
2018-10-05T08:35:55.050Z,102143.19
2018-10-05T08:38:23.410Z,102143.29
2018-10-05T08:40:52.113Z,102143.36
2018-10-05T08:43:20.482Z,102142.13
2018-10-05T08:45:48.949Z,102142.20
2018-10-05T08:48:17.348Z,102134.80
2018-10-05T08:50:45.718Z,102136.62
2018-10-05T08:53:14.121Z,102133.17
2018-10-05T08:55:42.486Z,102132.78
2018-10-05T08:58:10.875Z,102131.51
2018-10-05T09:00:39.308Z,102129.77
2018-10-05T09:03:07.697Z,102133.73
2018-10-05T09:05:36.072Z,102129.81
2018-10-05T09:08:04.469Z,102122.36
2018-10-05T09:10:32.838Z,102128.89
2018-10-05T09:13:01.254Z,102123.20
2018-10-05T09:15:29.622Z,102124.05
2018-10-05T09:17:58.043Z,102124.92
2018-10-05T09:20:26.430Z,102123.20
2018-10-05T09:22:54.830Z,102119.70
2018-10-05T09:25:23.199Z,102115.75
2018-10-05T09:27:51.593Z,102115.36
2018-10-05T09:30:20.018Z,102117.13
2018-10-05T09:32:48.586Z,102112.34
2018-10-05T09:35:16.960Z,102114.56
2018-10-05T09:37:45.364Z,102115.03
2018-10-05T09:40:13.738Z,102106.35
2018-10-05T09:42:42.133Z,102100.67
2018-10-05T09:45:10.548Z,102103.77
2018-10-05T09:47:38.935Z,102102.03
2018-10-05T09:50:07.315Z,102098.98
2018-10-05T09:52:35.748Z,102099.00
2018-10-05T09:55:04.122Z,102097.72
2018-10-05T09:57:32.515Z,102089.89
2018-10-05T10:00:00.930Z,102089.05
2018-10-05T10:02:34.730Z,102086.88
2018-10-05T10:05:03.097Z,102089.98
2018-10-05T10:07:31.493Z,102083.87
2018-10-05T10:09:59.860Z,102075.56
2018-10-05T10:12:28.270Z,102079.95
2018-10-05T10:14:56.634Z,102072.11
2018-10-05T10:17:25.018Z,102073.00
2018-10-05T10:19:53.381Z,102070.80
2018-10-05T10:22:21.774Z,102063.37
2018-10-05T10:24:50.144Z,102056.42
2018-10-05T10:27:18.538Z,102059.48
2018-10-05T10:29:46.930Z,102053.78
2018-10-05T10:32:15.333Z,102049.41
2018-10-05T10:34:43.727Z,102045.92
2018-10-05T10:37:12.110Z,102047.67
2018-10-05T10:39:40.501Z,102040.22
2018-10-05T10:42:08.910Z,102038.47
2018-10-05T10:44:37.297Z,102032.76
2018-10-05T10:47:05.673Z,102036.27
2018-10-05T10:49:34.153Z,102036.25
2018-10-05T10:52:02.529Z,102033.19
2018-10-05T10:54:32.610Z,102026.16
2018-10-05T10:57:00.969Z,102034.92
2018-10-05T10:59:29.401Z,102025.25
2018-10-05T11:01:57.809Z,102023.49
2018-10-05T11:04:26.333Z,102025.70
2018-10-05T11:06:54.601Z,102023.50
2018-10-05T11:09:23.015Z,102013.41
2018-10-05T11:11:51.386Z,102004.62
2018-10-05T11:14:19.803Z,102005.95
2018-10-05T11:16:48.182Z,102005.94
2018-10-05T11:19:16.582Z,101997.15
2018-10-05T11:21:44.949Z,101997.14
2018-10-05T11:24:13.342Z,101992.73
2018-10-05T11:26:41.705Z,101987.89
2018-10-05T11:29:10.114Z,101983.92
2018-10-05T11:31:38.518Z,101982.55
2018-10-05T11:34:07.296Z,101978.59
2018-10-05T11:36:35.661Z,101973.72
2018-10-05T11:39:05.179Z,101970.20
2018-10-05T11:41:33.604Z,101971.48
2018-10-05T11:44:02.022Z,101972.36
2018-10-05T11:46:30.431Z,101967.96
2018-10-05T11:48:58.846Z,101970.13
2018-10-05T11:51:27.337Z,101958.69
2018-10-05T11:53:55.729Z,101963.94
2018-10-05T11:56:24.093Z,101953.39
2018-10-05T11:58:52.525Z,101949.86
2018-10-05T12:01:21.266Z,101946.78
2018-10-05T12:03:49.654Z,101946.30
2018-10-05T12:06:18.045Z,101945.44
2018-10-05T12:08:46.428Z,101940.13
2018-10-05T12:11:14.794Z,101934.86
2018-10-05T12:13:43.218Z,101933.94
2018-10-05T12:16:11.566Z,101934.35
2018-10-05T12:18:39.964Z,101932.13
2018-10-05T12:21:08.373Z,101926.41
2018-10-05T12:23:36.761Z,101928.56
2018-10-05T12:26:05.167Z,101919.78
2018-10-05T12:28:33.585Z,101919.75
2018-10-05T12:31:01.951Z,101921.48
2018-10-05T12:33:30.345Z,101915.77
2018-10-05T12:35:58.729Z,101914.44
2018-10-05T12:38:27.109Z,101907.84
2018-10-05T12:40:55.529Z,101910.48
2018-10-05T12:43:23.898Z,101910.91
2018-10-05T12:45:52.293Z,101904.72
2018-10-05T12:48:20.665Z,101903.41
2018-10-05T12:50:49.058Z,101901.63
2018-10-05T12:53:17.421Z,101895.91
2018-10-05T12:55:45.970Z,101890.18
2018-10-05T12:58:14.400Z,101890.63
2018-10-05T13:00:42.749Z,101890.22
2018-10-05T13:03:11.118Z,101887.58
2018-10-05T13:05:39.505Z,101884.07
2018-10-05T13:08:07.890Z,101881.89
2018-10-05T13:10:36.393Z,101882.30
2018-10-05T13:13:04.870Z,101880.98
2018-10-05T13:15:33.226Z,101882.30
2018-10-05T13:18:01.606Z,101875.70
2018-10-05T13:20:30.006Z,101867.34
2018-10-05T13:22:58.371Z,101864.25
2018-10-05T13:25:26.769Z,101862.89
2018-10-05T13:27:55.154Z,101856.30
2018-10-05T13:30:23.582Z,101856.30
2018-10-05T13:32:52.094Z,101853.20
2018-10-05T13:35:20.495Z,101852.75
2018-10-05T13:37:48.862Z,101849.67
2018-10-05T13:40:17.255Z,101848.80
2018-10-05T13:42:45.843Z,101843.97
2018-10-05T13:45:14.247Z,101847.93
2018-10-05T13:47:42.634Z,101851.84
2018-10-05T13:50:12.449Z,101846.61
2018-10-05T13:52:40.874Z,101844.38
2018-10-05T13:55:09.283Z,101841.75
2018-10-05T13:57:37.654Z,101839.56
2018-10-05T14:00:06.270Z,101837.75
2018-10-05T14:02:34.770Z,101837.34
2018-10-05T14:05:03.210Z,101833.38
2018-10-05T14:07:31.586Z,101794.07
2018-10-05T14:09:59.978Z,101830.78
2018-10-05T14:12:28.369Z,101818.95
2018-10-05T14:14:56.757Z,101823.82
2018-10-05T14:17:25.430Z,101824.27
2018-10-05T14:19:53.829Z,101819.87
2018-10-05T14:22:22.205Z,101818.55
2018-10-05T14:24:50.683Z,101817.64
2018-10-05T14:27:19.051Z,101807.95
2018-10-05T14:29:47.475Z,101810.17
2018-10-05T14:32:15.840Z,101811.50
2018-10-05T14:34:44.258Z,101809.31
2018-10-05T14:37:12.626Z,101801.41
2018-10-05T14:39:41.029Z,101804.48
2018-10-05T14:42:09.427Z,101797.00
2018-10-05T14:44:37.799Z,101796.13
2018-10-05T14:47:06.207Z,101791.27
2018-10-05T14:49:34.692Z,101782.03
2018-10-05T14:52:03.058Z,101774.11
2018-10-05T14:54:31.504Z,101766.20
2018-10-05T14:56:59.893Z,101775.43
2018-10-05T14:59:28.263Z,101764.89
2018-10-05T15:01:56.660Z,101760.97
2018-10-05T15:04:25.030Z,101759.23
2018-10-05T15:06:53.442Z,101754.84
2018-10-05T15:09:21.826Z,101747.84
2018-10-05T15:11:50.245Z,101751.79
2018-10-05T15:14:18.622Z,101750.06
2018-10-05T15:16:47.011Z,101745.28
2018-10-05T15:19:15.379Z,101740.47
2018-10-05T15:21:43.765Z,101731.70
2018-10-05T15:24:12.137Z,101731.33
2018-10-05T15:26:40.534Z,101729.60
2018-10-05T15:29:08.938Z,101729.19
2018-10-05T15:31:37.346Z,101729.64
2018-10-05T15:34:05.714Z,101722.64
2018-10-05T15:36:34.718Z,101723.11
2018-10-05T15:39:03.251Z,101719.64
2018-10-05T15:41:31.710Z,101714.86
2018-10-05T15:44:00.085Z,101709.64
2018-10-05T15:47:07.754Z,101712.77
2018-10-05T15:49:36.721Z,101715.02
2018-10-05T15:52:05.128Z,101711.53
2018-10-05T15:54:33.518Z,101710.73
2018-10-05T15:57:02.091Z,101714.27
2018-10-05T15:59:31.262Z,101711.70
2018-10-05T16:01:59.669Z,101710.42
2018-10-05T16:04:28.433Z,101710.91
2018-10-05T16:06:57.003Z,101708.34
2018-10-05T16:09:25.370Z,101704.91
2018-10-05T16:11:53.801Z,101701.02
2018-10-05T16:14:22.169Z,101701.46
2018-10-05T16:16:50.566Z,101701.52
2018-10-05T16:19:18.943Z,101706.81
2018-10-05T16:21:47.333Z,101705.09
2018-10-05T16:24:19.796Z,101702.97
2018-10-05T16:26:48.199Z,101700.83
2018-10-05T16:29:16.590Z,101700.88
2018-10-05T16:31:45.075Z,101699.61
2018-10-05T16:34:13.438Z,101693.48
2018-10-05T16:36:41.834Z,101688.71
2018-10-05T16:39:11.782Z,101691.39
2018-10-05T16:41:40.158Z,101695.36
2018-10-05T16:44:08.526Z,101694.48
2018-10-05T16:46:37.870Z,101692.77
2018-10-05T16:49:06.846Z,101693.64
2018-10-05T16:51:35.234Z,101695.88
2018-10-05T16:54:03.616Z,101692.38
2018-10-05T16:56:32.007Z,101690.20
2018-10-05T16:59:00.405Z,101692.84
2018-10-05T17:01:28.797Z,101695.03
2018-10-05T17:03:57.195Z,101692.87
2018-10-05T17:06:25.726Z,101698.55
2018-10-05T17:08:57.579Z,101691.14
2018-10-05T17:11:25.981Z,101692.45
2018-10-05T17:13:54.349Z,101691.13
2018-10-05T17:16:22.726Z,101686.31
2018-10-05T17:18:51.107Z,101686.72
2018-10-05T17:21:19.474Z,101687.58
2018-10-05T17:23:47.867Z,101681.91
2018-10-05T17:26:16.354Z,101680.58
2018-10-05T17:28:44.770Z,101681.03
2018-10-05T17:31:13.138Z,101680.16
2018-10-05T17:33:41.530Z,101675.75
2018-10-05T17:36:09.897Z,101674.46
2018-10-05T17:38:38.288Z,101673.98
2018-10-05T17:41:06.946Z,101679.25
2018-10-05T17:43:35.458Z,101683.16
2018-10-05T17:46:04.077Z,101677.45
2018-10-05T17:48:32.469Z,101680.94
2018-10-05T17:51:00.950Z,101681.34
2018-10-05T17:53:29.338Z,101681.33
2018-10-05T17:55:57.786Z,101679.55
2018-10-05T17:58:26.141Z,101677.77
2018-10-05T18:00:54.510Z,101677.27
2018-10-05T18:03:22.902Z,101673.28
2018-10-05T18:05:51.290Z,101671.94
2018-10-05T18:08:19.742Z,101666.26
2018-10-05T18:10:48.114Z,101663.58
2018-10-05T18:13:16.509Z,101661.36
2018-10-05T18:15:44.885Z,101658.23
2018-10-05T18:18:13.274Z,101660.37
2018-10-05T18:20:41.656Z,101654.66
2018-10-05T18:23:10.051Z,101654.59
2018-10-05T18:25:38.450Z,101651.48
2018-10-05T18:28:07.102Z,101651.45
2018-10-05T18:30:35.493Z,101652.27
2018-10-05T18:33:03.892Z,101645.66
2018-10-05T18:35:32.265Z,101643.38
2018-10-05T18:38:00.658Z,101646.40
2018-10-05T18:40:29.030Z,101637.61
2018-10-05T18:42:57.430Z,101636.23
2018-10-05T18:45:25.798Z,101638.38
2018-10-05T18:47:54.186Z,101630.45
2018-10-05T18:50:22.562Z,101630.41
2018-10-05T18:52:50.957Z,101621.18
2018-10-05T18:55:19.335Z,101629.01
2018-10-05T18:57:47.726Z,101628.48
2018-10-05T19:00:16.186Z,101622.77
2018-10-05T19:02:44.534Z,101628.41
2018-10-05T19:05:12.910Z,101622.66
2018-10-05T19:07:41.326Z,101617.83
2018-10-05T19:10:09.722Z,101610.80
2018-10-05T19:12:38.098Z,101610.34
2018-10-05T19:15:06.602Z,101609.41
2018-10-05T19:17:35.001Z,101604.13
2018-10-05T19:20:03.402Z,101611.03
2018-10-05T19:22:31.774Z,101604.47
2018-10-05T19:25:00.167Z,101603.55
2018-10-05T19:27:28.549Z,101600.88
2018-10-05T19:29:56.970Z,101605.56
2018-10-05T19:32:25.361Z,101608.11
2018-10-05T19:34:53.805Z,101599.34
2018-10-05T19:37:22.181Z,101605.41
2018-10-05T19:39:50.586Z,101600.15
2018-10-05T19:42:18.968Z,101594.00
2018-10-05T19:44:47.365Z,101587.84
2018-10-05T19:47:15.742Z,101580.38
2018-10-05T19:49:44.138Z,101578.97
2018-10-05T19:52:12.661Z,101576.26
2018-10-05T19:54:41.061Z,101569.67
2018-10-05T19:57:09.437Z,101568.25
2018-10-05T19:59:37.849Z,101560.36
2018-10-05T20:02:06.304Z,101557.64
2018-10-05T20:04:34.721Z,101558.48
2018-10-05T20:07:03.115Z,101562.34
2018-10-05T20:09:31.563Z,101564.48
2018-10-05T20:11:59.942Z,101558.80
2018-10-05T20:14:28.346Z,101554.84
2018-10-05T20:16:56.758Z,101558.25
2018-10-05T20:19:25.145Z,101555.64
2018-10-05T20:21:53.626Z,101552.09
2018-10-05T20:24:22.082Z,101545.09
2018-10-05T20:26:50.442Z,101537.27
2018-10-05T20:29:18.990Z,101535.50
2018-10-05T20:31:47.370Z,101541.58
2018-10-05T20:34:15.769Z,101535.03
2018-10-05T20:36:44.344Z,101533.73
2018-10-05T20:39:12.566Z,101529.78
2018-10-05T20:41:40.952Z,101527.60
2018-10-05T20:44:09.346Z,101526.30
2018-10-05T20:46:37.712Z,101518.01
2018-10-05T20:49:06.165Z,101520.54
2018-10-05T20:51:34.555Z,101517.45
2018-10-05T20:54:02.963Z,101509.16
2018-10-05T20:56:31.446Z,101508.73
2018-10-05T20:58:59.878Z,101504.78
2018-10-05T21:01:28.254Z,101506.05
2018-10-05T21:03:56.668Z,101501.63
2018-10-05T21:06:25.047Z,101499.42
2018-10-05T21:08:53.422Z,101495.08
2018-10-05T21:11:21.818Z,101498.94
2018-10-05T21:13:50.182Z,101493.22
2018-10-05T21:16:18.583Z,101492.31
2018-10-05T21:18:46.955Z,101485.33
2018-10-05T21:21:15.469Z,101487.48
2018-10-05T21:23:44.030Z,101485.72
2018-10-05T21:26:12.425Z,101483.94
2018-10-05T21:28:40.818Z,101482.59
2018-10-05T21:31:09.179Z,101481.20
2018-10-05T21:33:37.546Z,101485.46
2018-10-05T21:36:05.945Z,101481.91
2018-10-05T21:38:34.481Z,101475.75
2018-10-05T21:41:02.898Z,101471.75
2018-10-05T21:43:31.287Z,101465.20
2018-10-05T21:45:59.687Z,101472.09
2018-10-05T21:48:28.065Z,101467.67
2018-10-05T21:50:56.466Z,101466.33
2018-10-05T21:53:24.874Z,101459.34
2018-10-05T21:55:53.279Z,101456.21
2018-10-05T21:58:21.662Z,101458.81
2018-10-05T22:00:50.063Z,101456.12
2018-10-05T22:03:18.446Z,101452.12
2018-10-05T22:05:46.842Z,101446.40
2018-10-05T22:08:15.222Z,101445.91
2018-10-05T22:10:43.618Z,101441.92
2018-10-05T22:13:11.997Z,101441.83
2018-10-05T22:15:40.402Z,101439.99
2018-10-05T22:18:08.783Z,101440.33
2018-10-05T22:20:37.182Z,101439.38
2018-10-05T22:23:05.551Z,101438.41
2018-10-05T22:25:33.966Z,101435.71
2018-10-05T22:28:02.358Z,101431.75
2018-10-05T22:30:30.780Z,101426.93
2018-10-05T22:32:59.152Z,101414.36
2018-10-05T22:35:27.544Z,101413.45
2018-10-05T22:37:55.913Z,101411.77
2018-10-05T22:40:24.305Z,101403.16
2018-10-05T22:42:52.679Z,101396.75
2018-10-05T22:45:21.073Z,101401.12
2018-10-05T22:47:49.440Z,101393.42
2018-10-05T22:50:17.838Z,101392.65
2018-10-05T22:52:46.210Z,101391.88
2018-10-05T22:55:14.614Z,101387.19
2018-10-05T22:57:42.983Z,101377.74
2018-10-05T23:00:11.385Z,101381.30
2018-10-05T23:02:39.754Z,101373.58
2018-10-05T23:05:08.113Z,101368.89
2018-10-05T23:07:36.510Z,101368.07
2018-10-05T23:10:04.935Z,101369.89
2018-10-05T23:12:33.338Z,101366.03
2018-10-05T23:15:02.294Z,101362.59
2018-10-05T23:17:30.726Z,101360.03
2018-10-05T23:19:59.103Z,101364.38
2018-10-05T23:22:27.706Z,101360.51
2018-10-05T23:24:56.083Z,101365.28
2018-10-05T23:27:24.474Z,101354.00
2018-10-05T23:29:52.861Z,101356.17
2018-10-05T23:32:21.330Z,101355.73
2018-10-05T23:34:49.708Z,101350.53
2018-10-05T23:37:18.113Z,101346.59
2018-10-05T23:39:46.485Z,101343.98
2018-10-05T23:42:14.881Z,101340.52
2018-10-05T23:44:43.253Z,101337.00
2018-10-05T23:47:11.654Z,101338.73
2018-10-05T23:49:40.021Z,101338.30
2018-10-05T23:52:16.400Z,101335.66
2018-10-05T23:54:44.830Z,101334.75
2018-10-05T23:57:13.238Z,101341.73
2018-10-05T23:59:41.611Z,101336.48
